sensor_id;sensor_type;location;lat;lon;timestamp;pressure;altitude;pressure_sealevel;temperature;humidity
58662;BME280;44432;49.786;22.760;2023-05-10T00:01:05;99978.55;;;3.94;65.59
58662;BME280;44432;49.786;22.760;2023-05-10T00:03:35;99979.44;;;3.92;66.03
58662;BME280;44432;49.786;22.760;2023-05-10T00:06:06;99977.36;;;3.90;65.78
58662;BME280;44432;49.786;22.760;2023-05-10T00:08:37;99974.30;;;3.89;66.09
58662;BME280;44432;49.786;22.760;2023-05-10T00:11:07;99975.32;;;3.88;66.05
58662;BME280;44432;49.786;22.760;2023-05-10T00:13:38;99978.38;;;3.85;66.72
58662;BME280;44432;49.786;22.760;2023-05-10T00:16:09;99975.56;;;3.80;66.66
58662;BME280;44432;49.786;22.760;2023-05-10T00:18:41;99974.71;;;3.77;66.76
58662;BME280;44432;49.786;22.760;2023-05-10T00:21:11;99973.17;;;3.73;66.91
58662;BME280;44432;49.786;22.760;2023-05-10T00:23:42;99965.59;;;3.70;67.35
58662;BME280;44432;49.786;22.760;2023-05-10T00:26:13;99970.16;;;3.74;67.08
58662;BME280;44432;49.786;22.760;2023-05-10T00:28:44;99971.80;;;3.74;67.36
58662;BME280;44432;49.786;22.760;2023-05-10T00:31:14;99966.85;;;3.72;67.20
58662;BME280;44432;49.786;22.760;2023-05-10T00:33:45;99965.13;;;3.68;67.70
58662;BME280;44432;49.786;22.760;2023-05-10T00:36:15;99964.46;;;3.68;67.56
58662;BME280;44432;49.786;22.760;2023-05-10T00:38:46;99964.16;;;3.67;67.84
58662;BME280;44432;49.786;22.760;2023-05-10T00:41:17;99964.34;;;3.65;67.69
58662;BME280;44432;49.786;22.760;2023-05-10T00:43:47;99962.50;;;3.63;67.86
58662;BME280;44432;49.786;22.760;2023-05-10T00:46:18;99961.80;;;3.57;67.90
58662;BME280;44432;49.786;22.760;2023-05-10T00:48:49;99959.91;;;3.54;68.09
58662;BME280;44432;49.786;22.760;2023-05-10T00:51:20;99961.17;;;3.48;67.73
58662;BME280;44432;49.786;22.760;2023-05-10T00:53:51;99959.77;;;3.45;67.97
58662;BME280;44432;49.786;22.760;2023-05-10T00:56:21;99962.49;;;3.44;68.30
58662;BME280;44432;49.786;22.760;2023-05-10T00:58:53;99961.35;;;3.43;68.36
58662;BME280;44432;49.786;22.760;2023-05-10T01:01:24;99958.45;;;3.42;68.49
58662;BME280;44432;49.786;22.760;2023-05-10T01:03:55;99960.86;;;3.44;68.36
58662;BME280;44432;49.786;22.760;2023-05-10T01:06:26;99957.39;;;3.46;68.75
58662;BME280;44432;49.786;22.760;2023-05-10T01:08:57;99956.88;;;3.42;68.63
58662;BME280;44432;49.786;22.760;2023-05-10T01:11:27;99955.77;;;3.39;68.53
58662;BME280;44432;49.786;22.760;2023-05-10T01:13:59;99957.80;;;3.36;68.72
58662;BME280;44432;49.786;22.760;2023-05-10T01:16:31;99954.45;;;3.35;68.58
58662;BME280;44432;49.786;22.760;2023-05-10T01:19:02;99953.48;;;3.35;68.69
58662;BME280;44432;49.786;22.760;2023-05-10T01:21:41;99954.01;;;3.29;69.07
58662;BME280;44432;49.786;22.760;2023-05-10T01:24:40;99956.98;;;3.25;68.74
58662;BME280;44432;49.786;22.760;2023-05-10T01:27:25;99958.19;;;3.22;68.91
58662;BME280;44432;49.786;22.760;2023-05-10T01:30:08;99957.47;;;3.18;69.07
58662;BME280;44432;49.786;22.760;2023-05-10T01:32:45;99961.57;;;3.17;69.03
58662;BME280;44432;49.786;22.760;2023-05-10T01:38:16;99959.09;;;3.18;69.29
58662;BME280;44432;49.786;22.760;2023-05-10T01:41:06;99954.02;;;3.16;69.41
58662;BME280;44432;49.786;22.760;2023-05-10T01:43:45;99952.25;;;3.10;69.23
58662;BME280;44432;49.786;22.760;2023-05-10T01:46:24;99954.70;;;3.06;69.26
58662;BME280;44432;49.786;22.760;2023-05-10T01:48:57;99951.84;;;3.01;69.78
58662;BME280;44432;49.786;22.760;2023-05-10T01:51:35;99950.14;;;2.97;69.67
58662;BME280;44432;49.786;22.760;2023-05-10T01:54:07;99949.15;;;2.93;69.91
58662;BME280;44432;49.786;22.760;2023-05-10T01:56:39;99945.48;;;2.92;69.99
58662;BME280;44432;49.786;22.760;2023-05-10T01:59:15;99945.23;;;2.89;70.27
58662;BME280;44432;49.786;22.760;2023-05-10T02:01:48;99944.33;;;2.87;70.60
58662;BME280;44432;49.786;22.760;2023-05-10T02:04:20;99940.11;;;2.86;70.47
58662;BME280;44432;49.786;22.760;2023-05-10T02:06:52;99941.98;;;2.85;70.30
58662;BME280;44432;49.786;22.760;2023-05-10T02:09:25;99936.95;;;2.83;70.52
58662;BME280;44432;49.786;22.760;2023-05-10T02:11:58;99939.38;;;2.81;70.58
58662;BME280;44432;49.786;22.760;2023-05-10T02:14:30;99943.10;;;2.80;70.72
58662;BME280;44432;49.786;22.760;2023-05-10T02:17:03;99941.64;;;2.77;70.66
58662;BME280;44432;49.786;22.760;2023-05-10T02:19:37;99938.83;;;2.74;70.45
58662;BME280;44432;49.786;22.760;2023-05-10T02:22:09;99934.23;;;2.73;70.93
58662;BME280;44432;49.786;22.760;2023-05-10T02:24:41;99930.92;;;2.71;70.87
58662;BME280;44432;49.786;22.760;2023-05-10T02:27:12;99927.34;;;2.69;70.83
58662;BME280;44432;49.786;22.760;2023-05-10T02:29:45;99936.27;;;2.68;71.16
58662;BME280;44432;49.786;22.760;2023-05-10T02:32:17;99932.33;;;2.66;70.83
58662;BME280;44432;49.786;22.760;2023-05-10T02:34:49;99934.70;;;2.64;71.10
58662;BME280;44432;49.786;22.760;2023-05-10T02:37:22;99932.26;;;2.62;71.35
58662;BME280;44432;49.786;22.760;2023-05-10T02:39:55;99930.35;;;2.61;70.97
58662;BME280;44432;49.786;22.760;2023-05-10T02:42:28;99930.88;;;2.57;71.42
58662;BME280;44432;49.786;22.760;2023-05-10T02:45:01;99934.26;;;2.52;71.77
58662;BME280;44432;49.786;22.760;2023-05-10T02:47:31;99937.55;;;2.51;71.53
58662;BME280;44432;49.786;22.760;2023-05-10T02:50:02;99937.24;;;2.47;71.61
58662;BME280;44432;49.786;22.760;2023-05-10T02:52:40;99936.78;;;2.46;71.87
58662;BME280;44432;49.786;22.760;2023-05-10T02:55:15;99936.74;;;2.43;71.74
58662;BME280;44432;49.786;22.760;2023-05-10T02:57:50;99934.33;;;2.41;71.95
58662;BME280;44432;49.786;22.760;2023-05-10T03:00:23;99938.98;;;2.40;72.10
58662;BME280;44432;49.786;22.760;2023-05-10T03:02:54;99938.63;;;2.38;72.00
58662;BME280;44432;49.786;22.760;2023-05-10T03:05:25;99937.21;;;2.36;72.01
58662;BME280;44432;49.786;22.760;2023-05-10T03:07:56;99938.94;;;2.37;72.29
58662;BME280;44432;49.786;22.760;2023-05-10T03:10:29;99936.09;;;2.37;72.58
58662;BME280;44432;49.786;22.760;2023-05-10T03:13:10;99939.89;;;2.37;72.51
58662;BME280;44432;49.786;22.760;2023-05-10T03:15:55;99936.85;;;2.38;72.54
58662;BME280;44432;49.786;22.760;2023-05-10T03:18:32;99939.06;;;2.39;72.63
58662;BME280;44432;49.786;22.760;2023-05-10T03:21:06;99938.38;;;2.40;72.68
58662;BME280;44432;49.786;22.760;2023-05-10T03:23:43;99936.59;;;2.41;72.64
58662;BME280;44432;49.786;22.760;2023-05-10T03:26:20;99938.69;;;2.43;72.50
58662;BME280;44432;49.786;22.760;2023-05-10T03:28:53;99939.67;;;2.45;72.84
58662;BME280;44432;49.786;22.760;2023-05-10T03:31:24;99938.80;;;2.49;72.90
58662;BME280;44432;49.786;22.760;2023-05-10T03:33:56;99934.23;;;2.53;73.28
58662;BME280;44432;49.786;22.760;2023-05-10T03:36:26;99933.05;;;2.58;73.21
58662;BME280;44432;49.786;22.760;2023-05-10T03:38:57;99934.73;;;2.64;73.31
58662;BME280;44432;49.786;22.760;2023-05-10T03:41:28;99932.29;;;2.68;73.01
58662;BME280;44432;49.786;22.760;2023-05-10T03:43:59;99928.73;;;2.74;72.88
58662;BME280;44432;49.786;22.760;2023-05-10T03:46:29;99931.50;;;2.80;72.76
58662;BME280;44432;49.786;22.760;2023-05-10T03:49:00;99931.30;;;2.85;72.96
58662;BME280;44432;49.786;22.760;2023-05-10T03:51:31;99930.38;;;2.91;72.89
58662;BME280;44432;49.786;22.760;2023-05-10T03:54:01;99926.39;;;2.97;72.89
58662;BME280;44432;49.786;22.760;2023-05-10T03:56:32;99923.79;;;3.02;72.56
58662;BME280;44432;49.786;22.760;2023-05-10T03:59:02;99922.24;;;3.09;72.75
58662;BME280;44432;49.786;22.760;2023-05-10T04:01:36;99921.42;;;3.15;72.36
58662;BME280;44432;49.786;22.760;2023-05-10T04:04:07;99921.88;;;3.21;72.22
58662;BME280;44432;49.786;22.760;2023-05-10T04:06:39;99922.23;;;3.28;72.50
58662;BME280;44432;49.786;22.760;2023-05-10T04:09:09;99924.19;;;3.35;72.25
58662;BME280;44432;49.786;22.760;2023-05-10T04:11:40;99924.48;;;3.43;72.25
58662;BME280;44432;49.786;22.760;2023-05-10T04:14:11;99923.86;;;3.50;72.24
58662;BME280;44432;49.786;22.760;2023-05-10T04:16:41;99924.57;;;3.57;71.86
58662;BME280;44432;49.786;22.760;2023-05-10T04:19:12;99923.59;;;3.62;71.62
58662;BME280;44432;49.786;22.760;2023-05-10T04:21:42;99924.40;;;3.70;72.07
58662;BME280;44432;49.786;22.760;2023-05-10T04:24:13;99927.42;;;3.78;71.73
58662;BME280;44432;49.786;22.760;2023-05-10T04:26:44;99927.98;;;3.86;71.73
58662;BME280;44432;49.786;22.760;2023-05-10T04:29:14;99927.90;;;3.95;71.65
58662;BME280;44432;49.786;22.760;2023-05-10T04:31:45;99928.94;;;4.06;71.53
58662;BME280;44432;49.786;22.760;2023-05-10T04:34:15;99926.77;;;4.17;71.43
58662;BME280;44432;49.786;22.760;2023-05-10T04:36:46;99929.45;;;4.28;71.21
58662;BME280;44432;49.786;22.760;2023-05-10T04:39:16;99928.76;;;4.40;71.13
58662;BME280;44432;49.786;22.760;2023-05-10T04:41:47;99929.41;;;4.54;70.95
58662;BME280;44432;49.786;22.760;2023-05-10T04:44:17;99927.20;;;4.67;70.86
58662;BME280;44432;49.786;22.760;2023-05-10T04:46:48;99924.76;;;4.80;70.62
58662;BME280;44432;49.786;22.760;2023-05-10T04:49:19;99926.56;;;4.93;70.40
58662;BME280;44432;49.786;22.760;2023-05-10T04:51:50;99923.96;;;5.06;69.92
58662;BME280;44432;49.786;22.760;2023-05-10T04:54:20;99925.90;;;5.19;69.76
58662;BME280;44432;49.786;22.760;2023-05-10T04:56:51;99927.73;;;5.32;69.38
58662;BME280;44432;49.786;22.760;2023-05-10T04:59:21;99921.17;;;5.46;69.20
58662;BME280;44432;49.786;22.760;2023-05-10T05:01:52;99918.84;;;5.60;68.73
58662;BME280;44432;49.786;22.760;2023-05-10T05:04:22;99921.45;;;5.73;68.37
58662;BME280;44432;49.786;22.760;2023-05-10T05:06:53;99920.36;;;5.86;67.86
58662;BME280;44432;49.786;22.760;2023-05-10T05:09:24;99921.97;;;5.98;67.46
58662;BME280;44432;49.786;22.760;2023-05-10T05:11:55;99916.52;;;6.06;66.88
58662;BME280;44432;49.786;22.760;2023-05-10T05:14:25;99909.74;;;6.12;66.63
58662;BME280;44432;49.786;22.760;2023-05-10T05:16:56;99916.78;;;6.22;66.43
58662;BME280;44432;49.786;22.760;2023-05-10T05:19:26;99919.03;;;6.32;66.36
58662;BME280;44432;49.786;22.760;2023-05-10T05:21:57;99918.08;;;6.42;65.96
58662;BME280;44432;49.786;22.760;2023-05-10T05:24:28;99915.75;;;6.50;65.95
58662;BME280;44432;49.786;22.760;2023-05-10T05:26:58;99911.48;;;6.59;65.71
58662;BME280;44432;49.786;22.760;2023-05-10T05:29:30;99912.00;;;6.68;65.54
58662;BME280;44432;49.786;22.760;2023-05-10T05:32:00;99912.66;;;6.78;65.42
58662;BME280;44432;49.786;22.760;2023-05-10T05:34:31;99910.64;;;6.88;65.02
58662;BME280;44432;49.786;22.760;2023-05-10T05:37:01;99911.96;;;6.98;65.07
58662;BME280;44432;49.786;22.760;2023-05-10T05:39:32;99910.09;;;7.08;64.60
58662;BME280;44432;49.786;22.760;2023-05-10T05:42:03;99908.27;;;7.18;63.99
58662;BME280;44432;49.786;22.760;2023-05-10T05:44:34;99908.83;;;7.27;63.97
58662;BME280;44432;49.786;22.760;2023-05-10T05:47:05;99907.36;;;7.36;63.85
58662;BME280;44432;49.786;22.760;2023-05-10T05:49:35;99906.13;;;7.44;63.37
58662;BME280;44432;49.786;22.760;2023-05-10T05:52:06;99904.56;;;7.49;63.14
58662;BME280;44432;49.786;22.760;2023-05-10T05:54:37;99904.94;;;7.56;63.03
58662;BME280;44432;49.786;22.760;2023-05-10T05:57:07;99909.53;;;7.64;62.62
58662;BME280;44432;49.786;22.760;2023-05-10T05:59:38;99909.02;;;7.73;62.87
58662;BME280;44432;49.786;22.760;2023-05-10T06:02:11;99906.70;;;7.82;62.34
58662;BME280;44432;49.786;22.760;2023-05-10T06:04:41;99907.15;;;7.90;62.11
58662;BME280;44432;49.786;22.760;2023-05-10T06:07:12;99905.30;;;7.99;62.08
58662;BME280;44432;49.786;22.760;2023-05-10T06:09:43;99899.71;;;8.08;61.68
58662;BME280;44432;49.786;22.760;2023-05-10T06:12:13;99901.23;;;8.18;61.51
58662;BME280;44432;49.786;22.760;2023-05-10T06:14:44;99903.54;;;8.30;61.36
58662;BME280;44432;49.786;22.760;2023-05-10T06:17:15;99903.83;;;8.42;61.30
58662;BME280;44432;49.786;22.760;2023-05-10T06:19:45;99904.73;;;8.54;61.10
58662;BME280;44432;49.786;22.760;2023-05-10T06:22:16;99903.72;;;8.66;60.62
58662;BME280;44432;49.786;22.760;2023-05-10T06:24:46;99901.05;;;8.78;60.56
58662;BME280;44432;49.786;22.760;2023-05-10T06:27:17;99901.30;;;8.89;60.34
58662;BME280;44432;49.786;22.760;2023-05-10T06:29:47;99904.92;;;9.01;60.09
58662;BME280;44432;49.786;22.760;2023-05-10T06:32:18;99904.49;;;9.12;59.90
58662;BME280;44432;49.786;22.760;2023-05-10T06:34:49;99899.08;;;9.24;59.63
58662;BME280;44432;49.786;22.760;2023-05-10T06:37:20;99897.09;;;9.37;59.52
58662;BME280;44432;49.786;22.760;2023-05-10T06:39:50;99897.42;;;9.49;59.21
58662;BME280;44432;49.786;22.760;2023-05-10T06:42:21;99895.27;;;9.62;59.07
58662;BME280;44432;49.786;22.760;2023-05-10T06:44:53;99896.21;;;9.74;58.69
58662;BME280;44432;49.786;22.760;2023-05-10T06:47:23;99896.70;;;9.85;58.53
58662;BME280;44432;49.786;22.760;2023-05-10T06:49:54;99895.57;;;9.99;58.18
58662;BME280;44432;49.786;22.760;2023-05-10T06:52:25;99896.42;;;10.11;57.97
58662;BME280;44432;49.786;22.760;2023-05-10T06:54:56;99895.67;;;10.24;57.58
58662;BME280;44432;49.786;22.760;2023-05-10T06:57:26;99890.41;;;10.36;57.24
58662;BME280;44432;49.786;22.760;2023-05-10T06:59:57;99886.35;;;10.50;57.06
58662;BME280;44432;49.786;22.760;2023-05-10T07:02:28;99880.75;;;10.65;56.70
58662;BME280;44432;49.786;22.760;2023-05-10T07:04:58;99884.83;;;10.79;56.28
58662;BME280;44432;49.786;22.760;2023-05-10T07:07:29;99881.70;;;10.92;55.75
58662;BME280;44432;49.786;22.760;2023-05-10T07:10:00;99884.25;;;11.06;55.25
58662;BME280;44432;49.786;22.760;2023-05-10T07:12:31;99888.13;;;11.23;54.34
58662;BME280;44432;49.786;22.760;2023-05-10T07:15:01;99882.20;;;11.40;53.28
58662;BME280;44432;49.786;22.760;2023-05-10T07:17:32;99882.84;;;11.59;52.81
58662;BME280;44432;49.786;22.760;2023-05-10T07:20:04;99878.08;;;11.79;52.01
58662;BME280;44432;49.786;22.760;2023-05-10T07:22:35;99874.44;;;11.97;51.03
58662;BME280;44432;49.786;22.760;2023-05-10T07:25:07;99868.99;;;12.13;50.57
58662;BME280;44432;49.786;22.760;2023-05-10T07:27:38;99872.77;;;12.29;49.92
58662;BME280;44432;49.786;22.760;2023-05-10T07:30:10;99876.80;;;12.42;48.68
58662;BME280;44432;49.786;22.760;2023-05-10T07:32:41;99878.23;;;12.53;48.15
58662;BME280;44432;49.786;22.760;2023-05-10T07:35:12;99871.46;;;12.63;47.00
58662;BME280;44432;49.786;22.760;2023-05-10T07:37:42;99872.85;;;12.72;45.99
58662;BME280;44432;49.786;22.760;2023-05-10T07:40:13;99870.85;;;12.78;45.77
58662;BME280;44432;49.786;22.760;2023-05-10T07:42:44;99872.13;;;12.85;44.66
58662;BME280;44432;49.786;22.760;2023-05-10T07:45:14;99871.89;;;12.90;44.59
58662;BME280;44432;49.786;22.760;2023-05-10T07:47:45;99871.86;;;12.97;44.48
58662;BME280;44432;49.786;22.760;2023-05-10T07:50:16;99869.77;;;13.03;44.07
58662;BME280;44432;49.786;22.760;2023-05-10T07:52:47;99866.89;;;13.13;43.72
58662;BME280;44432;49.786;22.760;2023-05-10T07:55:19;99867.20;;;13.22;43.58
58662;BME280;44432;49.786;22.760;2023-05-10T07:57:50;99868.63;;;13.31;42.92
58662;BME280;44432;49.786;22.760;2023-05-10T08:00:21;99865.61;;;13.37;42.27
58662;BME280;44432;49.786;22.760;2023-05-10T08:02:52;99864.08;;;13.46;41.98
58662;BME280;44432;49.786;22.760;2023-05-10T08:05:22;99866.09;;;13.55;41.78
58662;BME280;44432;49.786;22.760;2023-05-10T08:07:53;99863.15;;;13.64;41.63
58662;BME280;44432;49.786;22.760;2023-05-10T08:10:24;99865.48;;;13.74;40.65
58662;BME280;44432;49.786;22.760;2023-05-10T08:12:54;99866.56;;;13.80;40.60
58662;BME280;44432;49.786;22.760;2023-05-10T08:15:25;99863.73;;;13.85;40.66
58662;BME280;44432;49.786;22.760;2023-05-10T08:17:55;99861.52;;;13.90;40.18
58662;BME280;44432;49.786;22.760;2023-05-10T08:20:26;99863.84;;;13.94;40.31
58662;BME280;44432;49.786;22.760;2023-05-10T08:22:57;99862.88;;;14.00;40.31
58662;BME280;44432;49.786;22.760;2023-05-10T08:25:28;99855.23;;;14.10;40.38
58662;BME280;44432;49.786;22.760;2023-05-10T08:27:58;99860.23;;;14.20;39.57
58662;BME280;44432;49.786;22.760;2023-05-10T08:30:29;99862.02;;;14.25;39.16
58662;BME280;44432;49.786;22.760;2023-05-10T08:32:59;99859.55;;;14.29;38.97
58662;BME280;44432;49.786;22.760;2023-05-10T08:35:30;99856.45;;;14.39;39.29
58662;BME280;44432;49.786;22.760;2023-05-10T08:38:04;99855.14;;;14.50;39.02
58662;BME280;44432;49.786;22.760;2023-05-10T08:40:35;99860.62;;;14.54;38.28
58662;BME280;44432;49.786;22.760;2023-05-10T08:43:08;99856.17;;;14.61;38.38
58662;BME280;44432;49.786;22.760;2023-05-10T08:45:40;99860.68;;;14.69;38.09
58662;BME280;44432;49.786;22.760;2023-05-10T08:48:13;99856.50;;;14.76;37.80
58662;BME280;44432;49.786;22.760;2023-05-10T08:50:46;99855.30;;;14.81;37.50
58662;BME280;44432;49.786;22.760;2023-05-10T08:53:20;99852.24;;;14.86;37.49
58662;BME280;44432;49.786;22.760;2023-05-10T08:55:51;99855.27;;;14.94;36.88
58662;BME280;44432;49.786;22.760;2023-05-10T08:58:22;99853.86;;;15.03;36.79
58662;BME280;44432;49.786;22.760;2023-05-10T09:00:53;99856.23;;;15.10;36.47
58662;BME280;44432;49.786;22.760;2023-05-10T09:03:24;99854.98;;;15.14;36.51
58662;BME280;44432;49.786;22.760;2023-05-10T09:05:55;99846.13;;;15.15;36.22
58662;BME280;44432;49.786;22.760;2023-05-10T09:08:26;99851.77;;;15.17;36.37
58662;BME280;44432;49.786;22.760;2023-05-10T09:10:57;99854.92;;;15.26;35.76
58662;BME280;44432;49.786;22.760;2023-05-10T09:13:28;99852.84;;;15.30;35.43
58662;BME280;44432;49.786;22.760;2023-05-10T09:16:00;99847.65;;;15.40;35.14
58662;BME280;44432;49.786;22.760;2023-05-10T09:18:31;99842.79;;;15.52;35.53
58662;BME280;44432;49.786;22.760;2023-05-10T09:21:02;99841.94;;;15.64;35.64
58662;BME280;44432;49.786;22.760;2023-05-10T09:23:33;99846.21;;;15.74;35.50
58662;BME280;44432;49.786;22.760;2023-05-10T09:26:07;99843.98;;;15.82;35.15
58662;BME280;44432;49.786;22.760;2023-05-10T09:28:52;99839.08;;;15.84;34.68
58662;BME280;44432;49.786;22.760;2023-05-10T09:31:23;99836.42;;;15.74;34.59
58662;BME280;44432;49.786;22.760;2023-05-10T09:33:54;99827.55;;;15.73;34.30
58662;BME280;44432;49.786;22.760;2023-05-10T09:36:24;99826.84;;;15.79;34.26
58662;BME280;44432;49.786;22.760;2023-05-10T09:38:56;99828.31;;;15.83;34.23
58662;BME280;44432;49.786;22.760;2023-05-10T09:41:28;99819.83;;;15.90;34.25
58662;BME280;44432;49.786;22.760;2023-05-10T09:43:59;99819.46;;;15.90;33.99
58662;BME280;44432;49.786;22.760;2023-05-10T09:46:29;99822.15;;;15.88;34.04
58662;BME280;44432;49.786;22.760;2023-05-10T09:49:06;99821.17;;;15.93;33.88
58662;BME280;44432;49.786;22.760;2023-05-10T09:51:37;99808.73;;;15.98;33.87
58662;BME280;44432;49.786;22.760;2023-05-10T09:54:14;99807.16;;;16.05;33.69
58662;BME280;44432;49.786;22.760;2023-05-10T09:56:45;99806.30;;;16.13;33.81
58662;BME280;44432;49.786;22.760;2023-05-10T09:59:16;99810.27;;;16.22;33.69
58662;BME280;44432;49.786;22.760;2023-05-10T10:01:51;99811.00;;;16.26;33.55
58662;BME280;44432;49.786;22.760;2023-05-10T10:04:22;99808.92;;;16.26;32.97
58662;BME280;44432;49.786;22.760;2023-05-10T10:07:03;99803.47;;;16.26;33.01
58662;BME280;44432;49.786;22.760;2023-05-10T10:09:35;99804.14;;;16.33;33.05
58662;BME280;44432;49.786;22.760;2023-05-10T10:12:06;99788.86;;;16.42;32.89
58662;BME280;44432;49.786;22.760;2023-05-10T10:14:38;99792.48;;;16.55;32.86
58662;BME280;44432;49.786;22.760;2023-05-10T10:17:09;99791.22;;;16.60;32.10
58662;BME280;44432;49.786;22.760;2023-05-10T10:19:40;99782.65;;;16.58;32.23
58662;BME280;44432;49.786;22.760;2023-05-10T10:22:11;99777.00;;;16.61;32.53
58662;BME280;44432;49.786;22.760;2023-05-10T10:24:42;99781.70;;;16.73;32.79
58662;BME280;44432;49.786;22.760;2023-05-10T10:27:19;99779.56;;;16.82;32.32
58662;BME280;44432;49.786;22.760;2023-05-10T10:30:01;99778.51;;;16.80;31.93
58662;BME280;44432;49.786;22.760;2023-05-10T10:32:42;99772.48;;;16.77;31.93
58662;BME280;44432;49.786;22.760;2023-05-10T10:35:17;99772.08;;;16.78;32.08
58662;BME280;44432;49.786;22.760;2023-05-10T10:37:50;99779.27;;;16.86;31.99
58662;BME280;44432;49.786;22.760;2023-05-10T10:40:28;99771.34;;;16.88;31.37
58662;BME280;44432;49.786;22.760;2023-05-10T10:45:50;99761.81;;;16.88;31.17
58662;BME280;44432;49.786;22.760;2023-05-10T10:48:37;99761.90;;;16.88;30.68
58662;BME280;44432;49.786;22.760;2023-05-10T10:51:08;99759.61;;;16.88;30.99
58662;BME280;44432;49.786;22.760;2023-05-10T10:53:41;99757.64;;;16.91;31.16
58662;BME280;44432;49.786;22.760;2023-05-10T10:56:12;99750.80;;;16.97;31.23
58662;BME280;44432;49.786;22.760;2023-05-10T10:58:51;99741.95;;;17.05;30.85
58662;BME280;44432;49.786;22.760;2023-05-10T11:01:22;99737.77;;;17.07;30.73
58662;BME280;44432;49.786;22.760;2023-05-10T11:04:19;99745.54;;;17.13;31.06
58662;BME280;44432;49.786;22.760;2023-05-10T11:06:50;99742.61;;;17.23;31.13
58662;BME280;44432;49.786;22.760;2023-05-10T11:09:21;99738.63;;;17.28;30.85
58662;BME280;44432;49.786;22.760;2023-05-10T11:11:55;99738.41;;;17.31;30.64
58662;BME280;44432;49.786;22.760;2023-05-10T11:14:28;99734.31;;;17.36;30.54
58662;BME280;44432;49.786;22.760;2023-05-10T11:17:02;99730.34;;;17.42;30.57
58662;BME280;44432;49.786;22.760;2023-05-10T11:20:13;99724.84;;;17.46;30.25
58662;BME280;44432;49.786;22.760;2023-05-10T11:22:54;99718.84;;;17.48;29.93
58662;BME280;44432;49.786;22.760;2023-05-10T11:25:28;99720.80;;;17.47;29.49
58662;BME280;44432;49.786;22.760;2023-05-10T11:28:04;99723.23;;;17.45;29.44
58662;BME280;44432;49.786;22.760;2023-05-10T11:30:35;99710.56;;;17.44;29.27
58662;BME280;44432;49.786;22.760;2023-05-10T11:33:06;99719.42;;;17.44;29.32
58662;BME280;44432;49.786;22.760;2023-05-10T11:35:40;99720.38;;;17.44;29.24
58662;BME280;44432;49.786;22.760;2023-05-10T11:38:12;99716.58;;;17.39;29.27
58662;BME280;44432;49.786;22.760;2023-05-10T11:40:43;99716.66;;;17.33;29.38
58662;BME280;44432;49.786;22.760;2023-05-10T11:43:14;99714.84;;;17.33;29.59
58662;BME280;44432;49.786;22.760;2023-05-10T11:45:46;99708.07;;;17.38;29.54
58662;BME280;44432;49.786;22.760;2023-05-10T11:48:17;99701.66;;;17.41;29.30
58662;BME280;44432;49.786;22.760;2023-05-10T11:50:51;99694.35;;;17.46;29.35
58662;BME280;44432;49.786;22.760;2023-05-10T11:53:27;99698.46;;;17.54;29.17
58662;BME280;44432;49.786;22.760;2023-05-10T11:55:58;99698.55;;;17.60;28.75
58662;BME280;44432;49.786;22.760;2023-05-10T11:58:33;99690.84;;;17.58;28.50
58662;BME280;44432;49.786;22.760;2023-05-10T12:01:05;99692.20;;;17.61;28.91
58662;BME280;44432;49.786;22.760;2023-05-10T12:03:37;99694.11;;;17.73;29.00
58662;BME280;44432;49.786;22.760;2023-05-10T12:06:08;99693.46;;;17.82;28.45
58662;BME280;44432;49.786;22.760;2023-05-10T12:08:45;99685.76;;;17.81;28.35
58662;BME280;44432;49.786;22.760;2023-05-10T12:11:16;99694.80;;;17.82;28.41
58662;BME280;44432;49.786;22.760;2023-05-10T12:13:47;99687.82;;;17.87;28.20
58662;BME280;44432;49.786;22.760;2023-05-10T12:16:20;99686.67;;;17.89;28.15
58662;BME280;44432;49.786;22.760;2023-05-10T12:18:51;99686.11;;;17.93;27.96
58662;BME280;44432;49.786;22.760;2023-05-10T12:21:22;99684.36;;;17.93;27.65
58662;BME280;44432;49.786;22.760;2023-05-10T12:23:59;99676.77;;;17.92;27.44
58662;BME280;44432;49.786;22.760;2023-05-10T12:26:31;99675.55;;;17.89;27.52
58662;BME280;44432;49.786;22.760;2023-05-10T12:29:14;99672.23;;;17.93;27.67
58662;BME280;44432;49.786;22.760;2023-05-10T12:31:53;99670.32;;;17.94;27.55
58662;BME280;44432;49.786;22.760;2023-05-10T12:34:31;99664.23;;;17.90;27.39
58662;BME280;44432;49.786;22.760;2023-05-10T12:37:03;99667.08;;;17.90;27.54
58662;BME280;44432;49.786;22.760;2023-05-10T12:39:42;99663.96;;;17.95;27.50
58662;BME280;44432;49.786;22.760;2023-05-10T12:42:12;99668.05;;;17.96;27.07
58662;BME280;44432;49.786;22.760;2023-05-10T12:44:43;99664.48;;;17.98;27.00
58662;BME280;44432;49.786;22.760;2023-05-10T12:47:14;99660.42;;;18.04;27.01
58662;BME280;44432;49.786;22.760;2023-05-10T12:49:45;99655.34;;;18.13;26.63
58662;BME280;44432;49.786;22.760;2023-05-10T12:52:15;99656.17;;;18.16;26.51
58662;BME280;44432;49.786;22.760;2023-05-10T12:54:46;99655.20;;;18.21;26.43
58662;BME280;44432;49.786;22.760;2023-05-10T12:57:16;99656.93;;;18.24;26.39
58662;BME280;44432;49.786;22.760;2023-05-10T12:59:47;99646.32;;;18.31;26.64
58662;BME280;44432;49.786;22.760;2023-05-10T13:02:18;99652.59;;;18.39;26.47
58662;BME280;44432;49.786;22.760;2023-05-10T13:04:49;99649.48;;;18.45;26.54
58662;BME280;44432;49.786;22.760;2023-05-10T13:07:20;99648.81;;;18.49;26.37
58662;BME280;44432;49.786;22.760;2023-05-10T13:09:50;99644.06;;;18.56;26.51
58662;BME280;44432;49.786;22.760;2023-05-10T13:12:21;99638.15;;;18.58;26.05
58662;BME280;44432;49.786;22.760;2023-05-10T13:14:52;99636.04;;;18.56;25.86
58662;BME280;44432;49.786;22.760;2023-05-10T13:17:22;99631.42;;;18.46;26.00
58662;BME280;44432;49.786;22.760;2023-05-10T13:19:53;99631.55;;;18.43;26.33
58662;BME280;44432;49.786;22.760;2023-05-10T13:22:24;99630.84;;;18.47;26.21
58662;BME280;44432;49.786;22.760;2023-05-10T13:24:54;99631.05;;;18.46;25.99
58662;BME280;44432;49.786;22.760;2023-05-10T13:27:25;99628.51;;;18.44;26.04